Time;durP1;ratioP1;P1;durP2;ratioP2;P2;SDS_P1;SDS_P2;PMS_P1;PMS_P2;Temp;Humidity;BMP_temperature;BMP_pressure;BME280_temperature;BME280_humidity;BME280_pressure;Samples;Min_cycle;Max_cycle;Signal;HPM_P1;HPM_P2
2022/06/27 00:00:49;;;;;;;7.70;6.35;;;;;;;23.09;100.00;100300.84;5112668;28;20208;-70
2022/06/27 00:03:17;;;;;;;17.33;6.47;;;;;;;23.19;100.00;100302.25;5113104;28;20200;-70
2022/06/27 00:05:44;;;;;;;9.82;6.30;;;;;;;23.05;100.00;100295.69;5093264;28;20193;-70
2022/06/27 00:08:11;;;;;;;7.82;6.97;;;;;;;23.03;100.00;100303.69;5112747;28;20204;-70
2022/06/27 00:10:39;;;;;;;9.32;6.63;;;;;;;23.03;100.00;100303.69;5112646;28;20201;-70
2022/06/27 00:13:06;;;;;;;14.65;7.28;;;;;;;22.70;100.00;100291.53;5112652;28;20209;-70
2022/06/27 00:15:33;;;;;;;9.38;7.70;;;;;;;22.84;100.00;100304.31;5112975;28;20250;-70
2022/06/27 00:18:00;;;;;;;7.35;6.63;;;;;;;22.84;100.00;100309.59;5097026;28;20222;-70
2022/06/27 00:20:28;;;;;;;9.05;7.07;;;;;;;23.01;100.00;100313.44;5102006;28;20206;-71
2022/06/27 00:22:55;;;;;;;12.10;7.60;;;;;;;22.91;100.00;100312.00;5076773;28;20208;-71
2022/06/27 00:25:22;;;;;;;18.30;8.70;;;;;;;22.90;100.00;100310.25;5108915;28;20186;-71
2022/06/27 00:27:49;;;;;;;14.27;8.95;;;;;;;22.62;100.00;100306.72;5066210;28;20194;-71
2022/06/27 00:30:15;;;;;;;16.77;8.32;;;;;;;22.54;100.00;100300.81;5072897;28;20218;-71
2022/06/27 00:32:43;;;;;;;14.63;7.85;;;;;;;22.62;100.00;100310.22;5092148;28;20211;-71
2022/06/27 00:35:10;;;;;;;14.05;7.70;;;;;;;22.50;100.00;100296.53;5112221;28;20194;-71
2022/06/27 00:37:39;;;;;;;8.65;7.70;;;;;;;22.64;100.00;100303.13;5112127;28;20204;-71
2022/06/27 00:40:08;;;;;;;11.90;8.20;;;;;;;22.62;100.00;100299.66;5112352;28;20197;-70
2022/06/27 00:42:34;;;;;;;12.32;8.13;;;;;;;22.60;100.00;100301.50;5111997;28;20650;-71
2022/06/27 00:45:02;;;;;;;11.65;8.13;;;;;;;22.64;100.00;100295.19;5112038;28;20191;-71
2022/06/27 00:47:29;;;;;;;11.35;8.13;;;;;;;22.64;100.00;100307.53;5111626;28;20212;-70
2022/06/27 00:49:55;;;;;;;9.80;7.55;;;;;;;22.48;100.00;100287.75;5112440;28;20192;-70
2022/06/27 00:52:22;;;;;;;11.07;7.32;;;;;;;22.53;100.00;100299.06;5112413;28;20209;-70
2022/06/27 00:54:50;;;;;;;12.48;8.15;;;;;;;22.59;100.00;100306.81;5112247;28;20197;-70
2022/06/27 00:57:18;;;;;;;14.68;7.93;;;;;;;22.40;100.00;100282.72;5111641;28;20719;-70
2022/06/27 00:59:45;;;;;;;14.70;8.13;;;;;;;22.03;100.00;100251.25;5110697;28;20221;-70
2022/06/27 01:02:13;;;;;;;11.32;8.15;;;;;;;22.36;100.00;100296.09;5112356;28;20206;-70
2022/06/27 01:04:40;;;;;;;13.90;8.25;;;;;;;22.51;100.00;100300.91;5110994;28;20657;-71
2022/06/27 01:07:09;;;;;;;13.73;8.55;;;;;;;22.30;100.00;100307.69;5111584;28;20197;-71
2022/06/27 01:09:36;;;;;;;18.23;8.90;;;;;;;21.93;100.00;100297.31;5111720;28;20193;-71
2022/06/27 01:12:06;;;;;;;18.02;7.82;;;;;;;21.92;100.00;100300.84;5111343;28;20212;-71
2022/06/27 01:14:33;;;;;;;10.38;7.93;;;;;;;21.70;100.00;100291.75;5111867;28;20672;-71
2022/06/27 01:17:00;;;;;;;14.35;8.10;;;;;;;21.62;100.00;100296.38;5111059;28;20194;-71
2022/06/27 01:19:27;;;;;;;9.52;8.05;;;;;;;21.38;100.00;100281.19;5111596;28;20225;-71
2022/06/27 01:21:55;;;;;;;10.45;8.23;;;;;;;21.50;100.00;100291.44;5111746;28;20216;-71
2022/06/27 01:24:26;;;;;;;9.40;7.63;;;;;;;21.66;100.00;100292.75;5111324;28;20197;-71
2022/06/27 01:26:53;;;;;;;9.18;7.63;;;;;;;21.72;100.00;100289.97;5111098;28;20201;-71
2022/06/27 01:29:21;;;;;;;10.48;7.45;;;;;;;21.88;100.00;100293.91;5111371;28;20197;-71
2022/06/27 01:31:49;;;;;;;11.55;7.75;;;;;;;21.53;100.00;100270.22;5111604;28;20605;-71
2022/06/27 01:34:16;;;;;;;8.70;7.55;;;;;;;21.50;100.00;100275.59;5111715;28;20204;-71
2022/06/27 01:36:44;;;;;;;13.98;7.03;;;;;;;21.55;100.00;100273.69;5111475;28;20198;-71
2022/06/27 01:39:12;;;;;;;11.43;6.78;;;;;;;21.65;100.00;100285.75;5110829;28;20225;-71
2022/06/27 01:41:41;;;;;;;10.55;6.88;;;;;;;21.67;100.00;100273.38;5111401;28;20202;-71
2022/06/27 01:44:10;;;;;;;7.93;6.70;;;;;;;21.85;100.00;100278.16;5110125;28;20677;-71
2022/06/27 01:46:42;;;;;;;12.05;6.70;;;;;;;22.19;100.00;100310.63;5110950;28;20193;-71
2022/06/27 01:49:08;;;;;;;13.18;7.28;;;;;;;22.18;100.00;100314.19;5111465;28;20224;-71
2022/06/27 01:51:36;;;;;;;9.98;7.15;;;;;;;22.29;100.00;100315.66;5111264;28;20298;-71
2022/06/27 01:54:03;;;;;;;8.23;6.50;;;;;;;21.89;100.00;100263.94;5111101;28;20189;-71
2022/06/27 01:56:31;;;;;;;8.15;6.47;;;;;;;22.34;100.00;100324.31;5111495;28;20193;-71
2022/06/27 01:58:59;;;;;;;11.00;6.80;;;;;;;22.36;100.00;100322.50;5111018;28;20221;-71
2022/06/27 02:01:26;;;;;;;10.68;6.22;;;;;;;22.19;100.00;100293.91;5111361;28;20204;-71
2022/06/27 02:03:54;;;;;;;7.38;6.68;;;;;;;21.99;100.00;100249.59;5110917;28;20197;-71
2022/06/27 02:06:21;;;;;;;10.18;6.93;;;;;;;22.32;100.00;100334.06;5110637;28;20568;-71
2022/06/27 02:08:51;;;;;;;8.43;6.80;;;;;;;22.22;100.00;100334.31;5110638;28;20205;-71
2022/06/27 02:11:19;;;;;;;11.85;7.95;;;;;;;21.97;100.00;100330.66;5113765;28;20197;-71
2022/06/27 02:13:46;;;;;;;10.15;8.23;;;;;;;21.84;100.00;100320.41;5115439;28;20201;-71
2022/06/27 02:16:16;;;;;;;9.50;8.40;;;;;;;21.70;100.00;100291.75;5114953;28;20194;-70
2022/06/27 02:18:44;;;;;;;22.30;9.30;;;;;;;21.53;100.00;100275.50;5113921;28;20654;-69
2022/06/27 02:21:12;;;;;;;11.88;8.57;;;;;;;21.67;100.00;100315.59;5115191;28;20208;-71
2022/06/27 02:23:40;;;;;;;17.15;9.55;;;;;;;21.63;100.00;100319.22;5115283;28;20286;-71
2022/06/27 02:26:08;;;;;;;12.60;8.82;;;;;;;21.52;100.00;100316.00;5114628;28;20204;-71
2022/06/27 02:28:35;;;;;;;16.73;9.98;;;;;;;21.46;100.00;100326.72;5114017;28;20215;-71
2022/06/27 02:31:03;;;;;;;17.27;10.05;;;;;;;21.44;100.00;100323.25;5114956;28;20240;-71
2022/06/27 02:33:35;;;;;;;12.43;9.38;;;;;;;21.56;100.00;100329.06;5114625;28;20202;-71
2022/06/27 02:36:04;;;;;;;10.02;9.02;;;;;;;21.62;100.00;100334.19;5114470;28;20185;-71
2022/06/27 02:38:31;;;;;;;13.75;9.15;;;;;;;21.63;100.00;100324.50;5087417;28;20218;-71
2022/06/27 02:40:59;;;;;;;20.20;10.27;;;;;;;21.45;100.00;100325.84;5085387;28;20210;-71
2022/06/27 02:43:29;;;;;;;20.58;10.68;;;;;;;21.35;100.00;100312.91;5094524;28;20259;-71
2022/06/27 02:45:56;;;;;;;15.90;10.15;;;;;;;21.48;100.00;100327.53;5095428;28;20204;-71
2022/06/27 02:48:24;;;;;;;14.25;10.15;;;;;;;21.07;100.00;100291.63;5114751;28;20201;-71
2022/06/27 02:50:56;;;;;;;18.25;10.70;;;;;;;21.03;100.00;100295.22;5114372;28;20205;-71
2022/06/27 02:53:26;;;;;;;22.42;11.05;;;;;;;21.38;100.00;100321.63;5114444;28;20657;-71
2022/06/27 02:55:55;;;;;;;14.82;10.68;;;;;;;20.93;100.00;100312.16;5111793;28;20197;-71
2022/06/27 02:58:32;;;;;;;17.25;11.63;;;;;;;20.90;100.00;100321.03;5093840;28;20259;-71
2022/06/27 03:01:01;;;;;;;14.25;11.07;;;;;;;20.85;100.00;100316.75;5093720;28;20201;-70
2022/06/27 03:03:31;;;;;;;13.25;11.20;;;;;;;20.65;100.00;100289.06;5094128;28;20205;-71
2022/06/27 03:06:01;;;;;;;14.88;11.52;;;;;;;21.05;100.00;100325.03;5094102;28;20190;-71
2022/06/27 03:08:37;;;;;;;16.77;11.88;;;;;;;20.82;100.00;100296.59;5093839;28;20293;-70
2022/06/27 03:11:04;;;;;;;21.42;11.75;;;;;;;20.85;100.00;100307.06;5093754;28;20210;-71
2022/06/27 03:13:31;;;;;;;16.27;11.48;;;;;;;20.82;100.00;100306.28;5093751;28;20263;-71
2022/06/27 03:15:58;;;;;;;12.20;10.77;;;;;;;20.93;100.00;100291.94;5094781;28;20202;-71
2022/06/27 03:18:25;;;;;;;16.38;11.80;;;;;;;21.34;100.00;100313.81;5113527;28;20570;-71
2022/06/27 03:20:52;;;;;;;23.48;12.82;;;;;;;21.76;100.00;100312.69;5114146;28;20189;-71
2022/06/27 03:23:20;;;;;;;22.95;13.23;;;;;;;22.23;100.00;100304.34;5109655;28;20205;-71
2022/06/27 03:25:47;;;;;;;24.33;11.95;;;;;;;22.93;100.00;100339.28;5113478;28;20653;-70
2022/06/27 03:28:15;;;;;;;15.10;10.05;;;;;;;23.40;100.00;100331.59;5113250;28;20198;-70
2022/06/27 03:30:41;;;;;;;19.23;8.60;;;;;;;23.98;100.00;100354.28;5113559;28;20307;-70
2022/06/27 03:33:08;;;;;;;12.98;8.25;;;;;;;24.38;100.00;100359.06;5112543;28;20185;-70
2022/06/27 03:35:35;;;;;;;9.57;7.57;;;;;;;24.53;100.00;100340.78;5114312;28;20190;-70
2022/06/27 03:38:02;;;;;;;13.00;7.90;;;;;;;25.07;100.00;100369.66;5113413;28;20208;-70
2022/06/27 03:40:31;;;;;;;14.38;7.93;;;;;;;25.61;100.00;100381.63;5077904;28;20602;-70
2022/06/27 03:42:58;;;;;;;13.82;8.23;;;;;;;25.81;100.00;100383.44;5113697;28;20205;-71
2022/06/27 03:45:24;;;;;;;9.82;6.65;;;;;;;26.34;100.00;100371.34;5093968;28;20190;-69
2022/06/27 03:47:53;;;;;;;9.50;7.00;;;;;;;26.92;100.00;100388.19;5112591;28;20196;-70
2022/06/27 03:50:20;;;;;;;9.45;7.50;;;;;;;27.39;100.00;100390.38;5113201;28;20197;-69
2022/06/27 03:52:47;;;;;;;10.38;6.70;;;;;;;27.62;100.00;100367.91;5113563;28;20220;-70
2022/06/27 03:55:15;;;;;;;12.52;6.43;;;;;;;28.04;96.81;100393.25;5113237;28;20197;-70
2022/06/27 03:57:49;;;;;;;12.43;6.05;;;;;;;28.38;92.75;100392.38;5113153;28;20284;-70
2022/06/27 04:00:18;;;;;;;10.48;6.57;;;;;;;28.28;87.87;100396.47;5112422;28;20688;-71
2022/06/27 04:02:45;;;;;;;10.32;6.43;;;;;;;28.04;88.29;100390.56;5113146;28;20676;-71
2022/06/27 04:05:12;;;;;;;7.45;6.35;;;;;;;28.68;88.18;100405.06;5113119;28;20201;-70
2022/06/27 04:07:39;;;;;;;9.00;6.00;;;;;;;28.92;85.50;100382.34;5112405;28;20202;-70
2022/06/27 04:10:07;;;;;;;10.93;5.85;;;;;;;29.45;83.04;100409.56;5113018;28;20200;-70
2022/06/27 04:12:34;;;;;;;6.65;5.55;;;;;;;28.96;81.59;100405.25;5112971;28;20201;-69
2022/06/27 04:15:03;;;;;;;11.77;5.88;;;;;;;28.90;84.09;100409.09;5112575;28;20189;-69
2022/06/27 04:17:30;;;;;;;10.68;6.40;;;;;;;28.98;80.45;100388.19;5112893;28;20573;-69
2022/06/27 04:19:57;;;;;;;7.68;5.82;;;;;;;29.00;80.69;100418.31;5112673;28;20220;-69
2022/06/27 04:22:24;;;;;;;8.05;5.80;;;;;;;29.58;80.87;100409.72;5113076;28;20216;-69
2022/06/27 04:24:51;;;;;;;8.73;5.28;;;;;;;29.80;78.99;100407.50;5111647;28;20197;-68
2022/06/27 04:27:20;;;;;;;5.72;4.78;;;;;;;29.94;77.39;100404.03;5112238;28;20208;-69
2022/06/27 04:29:49;;;;;;;7.15;5.10;;;;;;;30.06;75.29;100405.13;5112236;28;20247;-68
2022/06/27 04:32:18;;;;;;;8.73;5.10;;;;;;;29.73;77.53;100406.16;5112899;28;20193;-69
2022/06/27 04:34:45;;;;;;;12.45;6.30;;;;;;;29.86;80.70;100404.50;5112607;28;20189;-74
2022/06/27 04:37:12;;;;;;;10.35;5.75;;;;;;;30.29;76.66;100401.91;5072829;28;20197;-76
2022/06/27 04:39:39;;;;;;;5.95;5.20;;;;;;;30.16;72.12;100417.84;5108218;28;20220;-70
2022/06/27 04:42:07;;;;;;;6.25;5.25;;;;;;;30.07;73.31;100406.88;5112525;28;20205;-70
2022/06/27 04:44:34;;;;;;;5.82;5.20;;;;;;;30.55;68.44;100425.28;5111732;28;20306;-70
2022/06/27 04:47:02;;;;;;;7.03;5.22;;;;;;;30.82;66.94;100431.59;5092867;28;20273;-71
2022/06/27 04:49:30;;;;;;;8.00;5.38;;;;;;;29.93;70.88;100427.25;5111896;28;20197;-70
2022/06/27 04:51:58;;;;;;;11.77;5.07;;;;;;;29.78;73.51;100425.47;5111940;28;20242;-70
2022/06/27 04:54:26;;;;;;;5.93;5.05;;;;;;;29.50;73.26;100438.72;5112447;28;20254;-70
2022/06/27 04:56:54;;;;;;;9.15;4.93;;;;;;;28.99;77.45;100405.94;5112248;28;20223;-75
2022/06/27 04:59:21;;;;;;;8.05;4.88;;;;;;;29.80;88.47;100420.88;5112268;28;20252;-74
2022/06/27 05:01:50;;;;;;;9.38;5.78;;;;;;;29.69;75.51;100433.16;5112734;28;20203;-74
2022/06/27 05:04:17;;;;;;;7.20;5.13;;;;;;;29.42;76.17;100432.94;5110940;28;20193;-73
2022/06/27 05:06:46;;;;;;;7.90;5.82;;;;;;;29.54;74.70;100445.59;5111781;28;20871;-68
2022/06/27 05:09:13;;;;;;;6.38;5.45;;;;;;;29.09;76.98;100442.81;5111400;28;20242;-71
2022/06/27 05:11:40;;;;;;;11.05;6.28;;;;;;;29.01;77.95;100436.09;5076166;28;20204;-68
2022/06/27 05:14:07;;;;;;;31.38;19.13;;;;;;;28.54;82.18;100429.75;5111489;28;20201;-67
2022/06/27 05:16:35;;;;;;;8.82;5.63;;;;;;;28.77;84.04;100453.44;5112135;28;20733;-67
2022/06/27 05:19:02;;;;;;;8.85;5.38;;;;;;;27.04;95.13;100451.47;5109342;28;20258;-67
2022/06/27 05:21:29;;;;;;;6.40;5.80;;;;;;;27.85;93.34;100456.44;5108965;28;20212;-67
2022/06/27 05:23:57;;;;;;;9.70;6.30;;;;;;;28.02;94.40;100453.78;5094384;28;20275;-67
2022/06/27 05:26:24;;;;;;;9.65;5.85;;;;;;;28.38;89.20;100460.88;5105718;28;20201;-68
2022/06/27 05:28:52;;;;;;;12.95;7.80;;;;;;;27.81;93.23;100462.00;5110060;28;20201;-67
2022/06/27 05:31:19;;;;;;;10.15;7.57;;;;;;;28.21;93.04;100463.56;5097127;28;20619;-67
2022/06/27 05:33:45;;;;;;;14.18;7.18;;;;;;;28.81;85.96;100460.34;5100648;28;20197;-68
2022/06/27 05:36:12;;;;;;;13.45;7.35;;;;;;;29.03;85.95;100466.25;5095834;28;20209;-67
2022/06/27 05:38:40;;;;;;;11.82;7.03;;;;;;;29.84;80.51;100477.72;5100267;28;20193;-67
2022/06/27 05:41:08;;;;;;;8.88;7.22;;;;;;;29.01;83.17;100470.81;5091724;28;20213;-67
2022/06/27 05:43:35;;;;;;;8.80;6.82;;;;;;;29.72;81.36;100481.94;5093266;28;20205;-66
2022/06/27 05:46:02;;;;;;;13.77;7.10;;;;;;;29.81;77.86;100478.75;5097343;28;20193;-68
2022/06/27 05:48:29;;;;;;;9.80;7.70;;;;;;;30.11;75.69;100454.72;5107400;28;20287;-68
2022/06/27 05:50:59;;;;;;;13.60;8.02;;;;;;;30.05;75.26;100484.50;5110765;28;20201;-67
2022/06/27 05:53:28;;;;;;;14.70;7.97;;;;;;;29.20;79.43;100467.13;5110770;28;20201;-68
2022/06/27 05:55:55;;;;;;;12.95;7.30;;;;;;;29.75;83.24;100489.78;5111392;28;20266;-68
2022/06/27 05:58:23;;;;;;;15.80;7.57;;;;;;;30.08;78.90;100472.75;5110869;28;20205;-68
2022/06/27 06:00:50;;;;;;;23.13;9.45;;;;;;;30.45;74.71;100488.38;5111101;28;20228;-68
2022/06/27 06:03:17;;;;;;;14.68;8.20;;;;;;;29.76;78.56;100491.53;5110751;28;20208;-68
2022/06/27 06:05:44;;;;;;;9.63;7.90;;;;;;;29.67;81.51;100488.53;5110814;28;20597;-67
2022/06/27 06:08:11;;;;;;;14.07;9.10;;;;;;;29.00;84.24;100477.06;5075022;28;20201;-67
2022/06/27 06:10:38;;;;;;;15.57;8.93;;;;;;;28.87;86.65;100481.38;5110924;28;20202;-67
2022/06/27 06:13:06;;;;;;;12.40;8.65;;;;;;;28.43;92.22;100485.53;5110432;28;20205;-68
2022/06/27 06:15:36;;;;;;;17.63;9.30;;;;;;;28.94;90.07;100489.91;5110914;28;20189;-68
2022/06/27 06:18:03;;;;;;;19.48;10.32;;;;;;;28.71;94.83;100482.28;5025861;28;20255;-68
2022/06/27 06:20:32;;;;;;;12.18;8.23;;;;;;;28.85;89.02;100485.09;5110759;28;20225;-68
2022/06/27 06:22:59;;;;;;;9.45;8.45;;;;;;;28.02;96.45;100485.78;5110121;28;20242;-69
2022/06/27 06:25:26;;;;;;;11.68;8.23;;;;;;;28.59;90.91;100486.44;5110345;28;20202;-68
2022/06/27 06:27:56;;;;;;;16.92;8.55;;;;;;;29.23;85.92;100491.00;5110772;28;20197;-68
2022/06/27 06:30:24;;;;;;;9.32;8.40;;;;;;;28.40;89.55;100482.97;5091856;28;20233;-68
2022/06/27 06:32:52;;;;;;;10.30;7.65;;;;;;;28.74;87.20;100485.66;5100473;28;20270;-68
2022/06/27 06:35:19;;;;;;;21.63;7.75;;;;;;;29.10;85.13;100492.63;5108896;28;20263;-68
2022/06/27 06:37:46;;;;;;;17.35;7.63;;;;;;;29.23;86.92;100491.00;5109511;28;20568;-68
2022/06/27 06:40:14;;;;;;;17.20;7.35;;;;;;;28.94;82.84;100485.44;5109985;28;20225;-68
2022/06/27 06:42:41;;;;;;;11.65;6.28;;;;;;;28.67;81.23;100492.25;5095127;28;20202;-68
2022/06/27 06:45:09;;;;;;;18.02;6.85;;;;;;;28.00;88.26;100497.47;5109670;28;20190;-68
2022/06/27 06:47:43;;;;;;;10.07;6.75;;;;;;;27.73;94.69;100483.72;5098821;28;20688;-67
2022/06/27 06:50:13;;;;;;;13.35;7.40;;;;;;;27.68;94.92;100499.06;5107113;28;20677;-68
2022/06/27 06:52:41;;;;;;;10.82;7.20;;;;;;;27.35;95.42;100476.69;5109443;28;20193;-68
2022/06/27 06:55:09;;;;;;;14.30;7.00;;;;;;;26.98;98.63;100493.50;5110171;28;20197;-68
2022/06/27 06:57:37;;;;;;;11.40;7.35;;;;;;;27.05;100.00;100494.94;5111401;28;20229;-69
2022/06/27 07:00:06;;;;;;;15.13;7.47;;;;;;;27.00;100.00;100468.53;5110290;28;20309;-67
2022/06/27 07:02:33;;;;;;;8.07;7.35;;;;;;;26.97;100.00;100495.28;5076797;28;20202;-68
2022/06/27 07:05:01;;;;;;;9.93;7.15;;;;;;;26.82;100.00;100480.03;5113792;28;20280;-68
2022/06/27 07:07:32;;;;;;;7.55;6.80;;;;;;;26.75;100.00;100477.69;5113866;28;20205;-67
2022/06/27 07:09:59;;;;;;;7.03;6.32;;;;;;;26.64;99.74;100488.81;5113499;28;20583;-68
2022/06/27 07:12:26;;;;;;;5.85;5.32;;;;;;;26.58;100.00;100484.63;5113468;28;20202;-68
2022/06/27 07:14:54;;;;;;;7.07;6.38;;;;;;;26.27;100.00;100484.22;5110808;28;20310;-68
2022/06/27 07:17:24;;;;;;;8.70;6.00;;;;;;;26.70;100.00;100485.00;5113672;28;20733;-68
2022/06/27 07:19:52;;;;;;;16.77;4.82;;;;;;;26.76;96.35;100485.59;5113607;28;20226;-68
2022/06/27 07:22:20;;;;;;;12.60;4.85;;;;;;;26.64;96.41;100488.81;5113427;28;20254;-67
2022/06/27 07:24:48;;;;;;;5.85;4.90;;;;;;;27.06;94.89;100486.91;5113417;28;20206;-68
2022/06/27 07:27:16;;;;;;;11.30;5.60;;;;;;;27.05;94.17;100485.16;5113355;28;20206;-68
2022/06/27 07:29:43;;;;;;;7.35;5.20;;;;;;;27.09;96.16;100484.09;5113747;28;20217;-68
2022/06/27 07:32:10;;;;;;;4.38;4.00;;;;;;;27.34;89.75;100482.94;5113078;28;21095;-68
2022/06/27 07:34:37;;;;;;;5.07;4.57;;;;;;;27.15;87.68;100419.03;5113688;28;20205;-68
2022/06/27 07:37:04;;;;;;;4.55;3.88;;;;;;;26.95;90.63;100472.34;5113064;28;20197;-68
2022/06/27 07:39:31;;;;;;;4.32;3.50;;;;;;;26.74;90.75;100484.81;5113462;28;20216;-69
2022/06/27 07:42:00;;;;;;;5.93;3.92;;;;;;;26.95;89.71;100480.34;5113099;28;20225;-69
2022/06/27 07:44:26;;;;;;;4.25;3.80;;;;;;;27.02;90.13;100487.09;5113220;27;20202;-69
2022/06/27 07:46:56;;;;;;;4.65;3.60;;;;;;;26.99;90.48;100474.81;5113207;28;20262;-68
2022/06/27 07:49:22;;;;;;;4.82;3.70;;;;;;;27.18;87.96;100485.47;5098670;28;20206;-68
2022/06/27 07:51:49;;;;;;;7.07;4.10;;;;;;;27.50;87.60;100490.13;5112911;28;20216;-69
2022/06/27 07:54:19;;;;;;;4.15;3.35;;;;;;;27.30;85.25;100487.53;5112830;28;20596;-69
2022/06/27 07:56:46;;;;;;;3.70;3.35;;;;;;;26.86;88.81;100484.25;5113288;28;20193;-69
2022/06/27 07:59:15;;;;;;;7.32;3.72;;;;;;;27.26;91.25;100482.41;5113013;28;20197;-68
2022/06/27 08:01:42;;;;;;;4.07;3.53;;;;;;;27.31;91.79;100451.13;5098712;28;20313;-69
2022/06/27 08:04:11;;;;;;;6.68;3.53;;;;;;;27.58;88.31;100484.44;5112493;28;20197;-69
2022/06/27 08:06:38;;;;;;;6.80;3.65;;;;;;;27.39;83.79;100411.66;5112633;28;20624;-67
2022/06/27 08:09:06;;;;;;;9.88;4.30;;;;;;;27.69;85.54;100481.25;5112225;28;20201;-69
2022/06/27 08:11:36;;;;;;;6.80;4.00;;;;;;;27.82;85.14;100475.28;5112825;28;20602;-68
2022/06/27 08:14:06;;;;;;;4.93;4.30;;;;;;;27.67;84.93;100473.34;5112334;28;20292;-69
2022/06/27 08:16:39;;;;;;;7.32;4.68;;;;;;;27.64;83.68;100478.84;5112517;28;20258;-69
2022/06/27 08:19:06;;;;;;;5.80;3.38;;;;;;;27.81;79.97;100464.69;5112492;28;20208;-69
2022/06/27 08:21:35;;;;;;;3.20;3.00;;;;;;;27.95;79.86;100479.03;5112473;28;20233;-69
2022/06/27 08:24:05;;;;;;;3.60;3.40;;;;;;;27.96;78.17;100479.91;5112243;28;20254;-69
2022/06/27 08:26:33;;;;;;;6.00;3.60;;;;;;;27.85;79.03;100429.78;5077406;28;20205;-69
2022/06/27 08:29:00;;;;;;;3.40;3.10;;;;;;;28.08;79.27;100474.84;5112284;28;20242;-69
2022/06/27 08:31:30;;;;;;;3.22;2.92;;;;;;;28.10;74.04;100471.25;5112707;28;20629;-67
2022/06/27 08:34:01;;;;;;;3.53;3.20;;;;;;;28.61;72.51;100476.53;5111945;27;20209;-68
2022/06/27 08:36:30;;;;;;;3.05;2.83;;;;;;;28.74;73.10;100472.31;5112522;28;20208;-68
2022/06/27 08:38:58;;;;;;;4.90;3.60;;;;;;;28.61;71.93;100447.16;5112220;28;20221;-68
2022/06/27 08:41:26;;;;;;;3.67;3.38;;;;;;;28.87;71.04;100454.66;5111990;28;20225;-68
2022/06/27 08:44:00;;;;;;;4.05;3.63;;;;;;;29.21;71.88;100482.22;5111872;28;20262;-68
2022/06/27 08:46:28;;;;;;;8.23;3.42;;;;;;;28.94;71.46;100474.75;5109188;28;20201;-68
2022/06/27 08:48:56;;;;;;;4.97;3.85;;;;;;;28.98;73.42;100468.31;5104838;28;20242;-69
2022/06/27 08:51:25;;;;;;;4.40;3.15;;;;;;;28.51;72.99;100478.81;5111792;28;20292;-69
2022/06/27 08:53:54;;;;;;;3.92;3.30;;;;;;;28.86;71.99;100463.63;5111699;28;20289;-69
2022/06/27 08:56:24;;;;;;;3.90;3.22;;;;;;;28.71;70.76;100452.94;5111687;28;20202;-69
2022/06/27 08:58:52;;;;;;;6.60;3.53;;;;;;;29.07;71.73;100463.41;5111844;28;20205;-69
2022/06/27 09:01:21;;;;;;;3.63;3.33;;;;;;;28.90;69.81;100459.84;5111457;28;20221;-69
2022/06/27 09:03:58;;;;;;;3.20;2.83;;;;;;;29.00;69.32;100462.88;5112086;28;20193;-69
2022/06/27 09:06:29;;;;;;;3.45;3.22;;;;;;;28.87;71.16;100465.34;5108761;28;20594;-69
2022/06/27 09:09:03;;;;;;;3.13;2.92;;;;;;;28.40;73.74;100459.84;5111767;28;20201;-69
2022/06/27 09:11:32;;;;;;;5.20;3.53;;;;;;;28.44;71.82;100392.03;5108623;28;20616;-69
2022/06/27 09:14:00;;;;;;;13.27;3.10;;;;;;;28.28;71.08;100463.16;5111682;28;20743;-68
2022/06/27 09:16:27;;;;;;;3.20;2.90;;;;;;;28.51;72.48;100448.59;5111476;28;20290;-69
2022/06/27 09:18:55;;;;;;;3.35;3.05;;;;;;;28.72;71.09;100449.28;5111105;28;20631;-69
2022/06/27 09:21:22;;;;;;;6.45;3.63;;;;;;;28.86;69.47;100433.41;5110015;28;20217;-69
2022/06/27 09:23:54;;;;;;;5.80;3.45;;;;;;;29.11;68.43;100448.94;5111129;28;20197;-68
2022/06/27 09:26:23;;;;;;;5.47;3.10;;;;;;;28.85;70.08;100427.22;5111009;28;20337;-69
2022/06/27 09:28:53;;;;;;;4.22;3.45;;;;;;;29.42;69.53;100447.16;5111039;28;20224;-70
2022/06/27 09:31:45;;;;;;;9.57;3.30;;;;;;;29.65;66.07;100448.50;5110680;28;20240;-71
2022/06/27 09:34:18;;;;;;;7.63;3.40;;;;;;;29.45;64.57;100443.44;5014561;28;20692;-71
2022/06/27 09:36:49;;;;;;;6.40;3.50;;;;;;;29.70;63.21;100456.25;5048627;28;20604;-70
2022/06/27 09:39:28;;;;;;;6.30;3.45;;;;;;;29.29;65.00;100445.25;5049292;28;20238;-69
2022/06/27 09:41:58;;;;;;;15.00;4.63;;;;;;;29.48;65.05;100454.81;5047739;28;20437;-69
2022/06/27 09:44:27;;;;;;;3.92;3.50;;;;;;;29.43;64.54;100443.53;5047659;28;20199;-69
2022/06/27 09:47:02;;;;;;;3.17;2.88;;;;;;;29.23;64.26;100448.25;5047838;28;20690;-68
2022/06/27 09:49:32;;;;;;;4.95;3.13;;;;;;;29.00;64.91;100441.53;5031109;28;20239;-69
2022/06/27 09:52:02;;;;;;;5.97;3.65;;;;;;;29.33;63.78;100444.13;5047881;28;20211;-69
2022/06/27 09:54:32;;;;;;;13.40;3.83;;;;;;;29.54;64.13;100450.94;5047693;28;20199;-68
2022/06/27 09:57:00;;;;;;;3.60;3.30;;;;;;;29.62;60.88;100432.66;5047813;28;20705;-69
2022/06/27 09:59:28;;;;;;;4.93;2.95;;;;;;;29.70;60.89;100429.53;5047956;28;20218;-68
2022/06/27 10:01:57;;;;;;;7.22;3.10;;;;;;;29.75;60.20;100439.00;5047734;28;20246;-69
2022/06/27 10:04:26;;;;;;;6.95;3.80;;;;;;;29.49;61.08;100436.97;5047862;28;20208;-69
2022/06/27 10:06:54;;;;;;;12.73;3.45;;;;;;;29.66;62.17;100431.53;5047589;28;20212;-68
2022/06/27 10:09:25;;;;;;;4.05;3.17;;;;;;;29.86;61.16;100436.59;5047851;28;20630;-68
2022/06/27 10:12:27;;;;;;;3.17;2.97;;;;;;;29.73;61.14;100426.66;5106651;28;20209;-68
2022/06/27 10:15:21;;;;;;;5.90;3.25;;;;;;;29.59;62.00;100422.13;5047517;28;20601;-69
2022/06/27 10:17:51;;;;;;;3.97;2.97;;;;;;;29.69;61.43;100411.75;5047860;28;20303;-69
2022/06/27 10:20:20;;;;;;;7.88;3.55;;;;;;;30.03;60.88;100422.22;5047406;28;20211;-73
2022/06/27 10:22:49;;;;;;;8.02;3.45;;;;;;;30.24;60.44;100425.44;5014325;28;20279;-69
2022/06/27 10:25:37;;;;;;;215.40;16.80;;;;;;;30.36;58.18;100422.84;5047599;28;20565;-69
2022/06/27 10:28:20;;;;;;;23.70;4.13;;;;;;;30.59;59.84;100409.91;5014649;28;20207;-68
2022/06/27 10:30:49;;;;;;;13.05;3.45;;;;;;;30.68;57.02;100415.53;5047353;28;20318;-68
2022/06/27 10:33:41;;;;;;;14.93;3.92;;;;;;;30.91;54.15;100420.31;5051321;28;20203;-68
2022/06/27 10:36:13;;;;;;;22.38;5.13;;;;;;;30.63;55.89;100414.97;5051511;28;20199;-68
2022/06/27 10:38:53;;;;;;;71.55;7.50;;;;;;;31.33;54.36;100411.34;5051634;28;20211;-68
2022/06/27 10:41:39;;;;;;;5.82;3.03;;;;;;;31.42;53.47;100412.56;5051176;28;20372;-68
2022/06/27 10:44:32;;;;;;;9.05;3.40;;;;;;;30.84;54.00;100410.94;5049958;28;20248;-69
2022/06/27 10:47:00;;;;;;;5.20;2.80;;;;;;;30.68;55.08;100410.16;5042286;28;20215;-68
2022/06/27 10:49:29;;;;;;;6.15;3.35;;;;;;;30.77;54.76;100404.25;5051155;28;20195;-68
2022/06/27 10:52:32;;;;;;;4.03;3.05;;;;;;;30.96;53.81;100407.47;5039562;28;20205;-68
2022/06/27 10:55:00;;;;;;;3.78;2.92;;;;;;;30.69;53.87;100385.13;5100366;28;20193;-68
2022/06/27 10:57:42;;;;;;;6.25;2.95;;;;;;;30.70;53.92;100397.56;5113659;28;20201;-68
2022/06/27 11:00:13;;;;;;;4.97;2.97;;;;;;;30.69;54.25;100398.50;5113904;28;20200;-68
2022/06/27 11:02:41;;;;;;;4.53;2.97;;;;;;;30.59;54.62;100385.81;5078172;28;20726;-68
2022/06/27 11:05:08;;;;;;;5.85;2.80;;;;;;;30.68;55.36;100387.91;5113996;28;20197;-68
2022/06/27 11:07:35;;;;;;;3.42;3.17;;;;;;;30.52;55.00;100387.16;5113567;28;20197;-68
2022/06/27 11:10:02;;;;;;;4.15;3.05;;;;;;;30.41;53.92;100379.75;5113556;28;20203;-68
2022/06/27 11:12:36;;;;;;;3.35;3.03;;;;;;;30.10;56.20;100372.75;5113545;28;20210;-69
2022/06/27 11:15:04;;;;;;;5.72;2.97;;;;;;;30.50;54.23;100357.81;5113742;28;20188;-69
2022/06/27 11:17:40;;;;;;;4.57;3.20;;;;;;;31.12;53.93;100366.31;5113692;28;20201;-69
2022/06/27 11:20:16;;;;;;;3.10;2.80;;;;;;;31.44;53.60;100375.78;5113324;28;20200;-69
2022/06/27 11:22:44;;;;;;;36.75;4.22;;;;;;;31.32;52.14;100357.84;5113150;28;20221;-69
2022/06/27 11:25:12;;;;;;;8.35;3.05;;;;;;;31.17;50.21;100361.53;5113564;28;20211;-69